Sausalito, CA (94965)

9:09 AM PST on January 25, 2015 (GMT -0800)
Prospect Ave. Sausalito | Change Station
CLOSE
Current Station
Personal Weather Station
Location: Sausalito, CA
Elevation: 518 ft
Nearby Weather Stations
Active Advisory: High Surf Advisory Active Notice: Record Report

Elev 518 ft 37.85 °N, 122.49 °W | Updated 12 seconds ago

Partly Cloudy
Partly Cloudy
45.0 °F
Feels Like 41 °F
N
7.0
Wind Variable Wind from West
Gusts 11.0 mph

Today
High -- | Low -- °F
--% Chance of Precip.
Yesterday
High -- | Low -- °F
Precip. -- in
7:19 AM 5:25 PM
Waxing Crescent, 34% visible
Pressure 30.14 in
Visibility 10.0 miles
Clouds Few 1100 ft
Windchill 41 °F
Dew Point 44 °F
Humidity 97%
Rainfall 0.00 in
Snow Depth Not available.
UV 1 out of 12
Pollen 7.00 out of 12
Air Quality Not available.
Flu Activity Not available.
METAR KSFO 251656Z 00000KT 10SM FEW011 11/07 A3014 RMK AO2 SLP206 T01060072

More Conditions Fewer Conditions

Pressure 30.14 in
Visibility 10.0 miles
Clouds Few 1100 ft
Windchill 41 °F
Dew Point 44 °F
Humidity 97%
Rainfall 0.00 in
Snow Depth Not available.
UV 1 out of 12
Pollen 7.00 out of 12
Air Quality Not available.
Flu Activity Not available.
METAR KSFO 251656Z 00000KT 10SM FEW011 11/07 A3014 RMK AO2 SLP206 T01060072

More Conditions Fewer Conditions

10-Day Weather Forecast

Almanac

Astronomy

Jan. 25, 2015 Rise Set
Actual Time
Civil Twilight
Nautical Twilight
Astronomical Twilight
Moon
Length of Visible Light
Length of Day
Tomorrow will be .
, % of the Moon is Illuminated

Today's Extremes

State Highs State Lows

Community

WunderPhotos

Upload Photos

1,789,980 photos uploaded!

WunderBlogs® & News

Nearby

Air Quality

  Air Quality AQ Index Pollutant
Not available.

Snow Depth

Station Depth Elevation

Earthquake Activity

City Distance Mag. Time & Date
Minimum magnitude displayed is 2.5.

Coastal Water Temperatures

Place Temperature

Nearby Weather Stations